Time;durP1;ratioP1;P1;durP2;ratioP2;P2;SDS_P1;SDS_P2;PMS_P1;PMS_P2;Temp;Humidity;BMP_temperature;BMP_pressure;BME280_temperature;BME280_humidity;BME280_pressure;Samples;Min_cycle;Max_cycle;Signal;HPM_P1;HPM_P2
2023/09/13 00:00:38;;;;;;;5.10;1.98;;;;;;;4.63;100.00;101708.78;5011726;28;20029;-86
2023/09/13 00:03:04;;;;;;;5.97;2.17;;;;;;;4.58;100.00;101711.81;4996321;28;20041;-86
2023/09/13 00:05:30;;;;;;;7.15;1.83;;;;;;;4.56;100.00;101710.22;4995524;28;20045;-86
2023/09/13 00:07:56;;;;;;;5.15;2.00;;;;;;;4.55;100.00;101708.50;5011280;28;20034;-86
2023/09/13 00:10:21;;;;;;;7.07;2.13;;;;;;;4.56;100.00;101711.06;5011311;28;20104;-85
2023/09/13 00:12:47;;;;;;;3.17;1.58;;;;;;;4.55;100.00;101704.06;4994965;28;20034;-85
2023/09/13 00:15:13;;;;;;;3.70;1.95;;;;;;;4.52;100.00;101704.25;4995299;28;20038;-85
2023/09/13 00:17:38;;;;;;;7.43;2.33;;;;;;;4.48;100.00;101701.94;4996266;28;20031;-85
2023/09/13 00:20:05;;;;;;;4.05;1.67;;;;;;;4.41;100.00;101704.19;4996146;28;20129;-85
2023/09/13 00:22:31;;;;;;;4.00;1.80;;;;;;;4.37;100.00;101700.06;4994869;28;20030;-85
2023/09/13 00:24:56;;;;;;;3.00;1.83;;;;;;;4.30;100.00;101699.66;4995070;28;20095;-85
2023/09/13 00:27:22;;;;;;;6.63;2.17;;;;;;;4.30;100.00;101699.66;4996119;28;20069;-85
2023/09/13 00:29:47;;;;;;;3.28;1.85;;;;;;;4.31;100.00;101698.72;5011149;28;20034;-85
2023/09/13 00:32:13;;;;;;;4.32;1.80;;;;;;;4.27;100.00;101701.72;4995586;28;20489;-86
2023/09/13 00:34:38;;;;;;;4.05;1.95;;;;;;;4.22;100.00;101709.19;4993562;28;20505;-85
2023/09/13 00:37:04;;;;;;;4.68;1.80;;;;;;;4.20;100.00;101703.94;4994403;28;20205;-85
2023/09/13 00:39:30;;;;;;;4.95;2.10;;;;;;;4.26;100.00;101703.53;4994880;28;20036;-85
2023/09/13 00:41:58;;;;;;;6.13;2.50;;;;;;;4.32;100.00;101702.22;4994619;28;20428;-87
2023/09/13 00:44:24;;;;;;;8.20;2.50;;;;;;;4.41;100.00;101699.72;5010665;28;20027;-84
2023/09/13 00:46:50;;;;;;;4.55;2.03;;;;;;;4.50;100.00;101706.19;5011099;28;20039;-85
2023/09/13 00:49:15;;;;;;;4.97;2.30;;;;;;;4.48;100.00;101699.28;4994642;28;20090;-88
2023/09/13 00:51:41;;;;;;;5.93;2.47;;;;;;;4.46;100.00;101702.06;4995183;28;20038;-84
2023/09/13 00:54:08;;;;;;;6.30;2.33;;;;;;;4.43;100.00;101699.63;4994033;28;20038;-86
2023/09/13 00:56:34;;;;;;;4.30;2.17;;;;;;;4.44;100.00;101705.78;4962346;28;20042;-85
2023/09/13 00:59:00;;;;;;;7.88;2.70;;;;;;;4.46;100.00;101701.22;5010285;28;20034;-86
2023/09/13 01:01:27;;;;;;;8.85;2.85;;;;;;;4.46;100.00;101704.72;4994271;28;20042;-87
2023/09/13 01:03:53;;;;;;;5.53;2.60;;;;;;;4.39;100.00;101703.44;5010463;28;20034;-86
2023/09/13 01:06:19;;;;;;;8.27;2.65;;;;;;;4.27;100.00;101705.22;5013944;28;20030;-84
2023/09/13 01:08:45;;;;;;;4.03;2.10;;;;;;;4.21;100.00;101702.13;5015847;28;20042;-85
2023/09/13 01:11:11;;;;;;;4.32;1.98;;;;;;;4.11;100.00;101700.16;5007684;28;20069;-85
2023/09/13 01:13:37;;;;;;;6.07;2.35;;;;;;;4.06;100.00;101702.28;5010114;28;20058;-85
2023/09/13 01:16:17;;;;;;;6.20;2.22;;;;;;;4.06;100.00;101707.63;4995155;28;20026;-85
2023/09/13 01:19:00;;;;;;;8.45;2.70;;;;;;;4.13;100.00;101694.72;4993818;28;20121;-85
2023/09/13 01:21:44;;;;;;;7.47;3.45;;;;;;;4.52;100.00;101684.75;4993586;28;20116;-85
2023/09/13 01:24:48;;;;;;;8.75;2.85;;;;;;;4.80;100.00;101691.56;4995064;28;20030;-85
2023/09/13 01:27:31;;;;;;;7.18;2.50;;;;;;;4.70;100.00;101690.53;4961949;28;20034;-85
2023/09/13 01:29:59;;;;;;;8.23;3.20;;;;;;;4.48;100.00;101678.81;4992921;28;20049;-86
2023/09/13 01:32:25;;;;;;;6.90;3.17;;;;;;;4.47;100.00;101684.25;4994052;28;20100;-86
2023/09/13 01:34:50;;;;;;;5.72;2.83;;;;;;;4.44;100.00;101681.81;4994801;28;20038;-85
2023/09/13 01:37:16;;;;;;;5.63;2.80;;;;;;;4.37;100.00;101673.44;5009812;28;20101;-85
2023/09/13 01:39:42;;;;;;;9.25;2.80;;;;;;;4.39;100.00;101675.03;4993629;28;20030;-85
2023/09/13 01:42:10;;;;;;;10.10;3.10;;;;;;;4.33;100.00;101675.47;4993484;28;20037;-85
2023/09/13 01:44:40;;;;;;;7.05;2.70;;;;;;;4.23;100.00;101677.09;5009793;28;20049;-86
2023/09/13 01:47:07;;;;;;;6.45;2.90;;;;;;;4.16;100.00;101681.19;4993303;28;20045;-86
2023/09/13 01:49:33;;;;;;;5.63;3.00;;;;;;;4.09;100.00;101690.56;5009711;28;20041;-85
2023/09/13 01:51:58;;;;;;;7.18;2.58;;;;;;;4.04;100.00;101693.56;4993144;28;20030;-86
2023/09/13 01:54:24;;;;;;;7.15;2.58;;;;;;;4.02;100.00;101684.00;5009691;28;20033;-85
2023/09/13 01:56:49;;;;;;;5.90;2.38;;;;;;;4.03;100.00;101685.72;4993317;28;20022;-85
2023/09/13 01:59:15;;;;;;;8.15;2.88;;;;;;;3.92;100.00;101670.50;4994030;28;20390;-85
2023/09/13 02:01:41;;;;;;;6.43;2.38;;;;;;;3.94;100.00;101674.78;5009651;28;20030;-85
2023/09/13 02:04:07;;;;;;;5.25;2.70;;;;;;;4.08;100.00;101688.88;4977039;28;20037;-85
2023/09/13 02:06:32;;;;;;;5.50;2.30;;;;;;;4.08;100.00;101689.72;4993068;28;20445;-85
2023/09/13 02:08:58;;;;;;;9.07;2.80;;;;;;;4.04;100.00;101685.56;4994539;28;20038;-88
2023/09/13 02:11:24;;;;;;;6.72;2.67;;;;;;;4.08;100.00;101688.88;5009239;28;20038;-85
2023/09/13 02:13:50;;;;;;;9.98;3.92;;;;;;;4.10;100.00;101689.59;4993239;28;20030;-85
2023/09/13 02:16:22;;;;;;;10.80;3.10;;;;;;;4.05;100.00;101684.63;4993914;28;20033;-86
2023/09/13 02:18:48;;;;;;;9.10;2.92;;;;;;;4.12;100.00;101680.53;4993263;28;20066;-86
2023/09/13 02:21:13;;;;;;;9.20;3.05;;;;;;;4.22;100.00;101686.06;4992999;28;20065;-85
2023/09/13 02:23:41;;;;;;;10.27;3.20;;;;;;;4.32;100.00;101675.59;4994004;28;20034;-85
2023/09/13 02:26:17;;;;;;;10.02;3.33;;;;;;;4.36;100.00;101680.56;5008642;28;20466;-86
2023/09/13 02:28:42;;;;;;;5.50;2.55;;;;;;;4.30;100.00;101680.19;5009379;28;20034;-85
2023/09/13 02:31:08;;;;;;;7.93;3.03;;;;;;;4.21;100.00;101673.72;4992694;28;20035;-85
2023/09/13 02:33:33;;;;;;;7.25;2.63;;;;;;;4.14;100.00;101662.66;4992671;28;20040;-86
2023/09/13 02:35:59;;;;;;;5.93;2.65;;;;;;;4.13;100.00;101665.44;4992342;28;20034;-86
2023/09/13 02:38:24;;;;;;;9.23;2.90;;;;;;;4.15;100.00;101668.81;5008965;28;20110;-85
2023/09/13 02:40:50;;;;;;;6.45;2.70;;;;;;;4.18;100.00;101657.94;4976673;28;20118;-85
2023/09/13 02:43:15;;;;;;;8.45;3.05;;;;;;;4.15;100.00;101661.72;4992844;28;20110;-85
2023/09/13 02:45:41;;;;;;;16.48;3.45;;;;;;;4.14;100.00;101657.34;4992745;28;20532;-85
2023/09/13 02:48:06;;;;;;;8.48;3.00;;;;;;;4.23;100.00;101658.47;5009161;28;20027;-85
2023/09/13 02:50:32;;;;;;;7.97;2.80;;;;;;;4.32;100.00;101651.63;5008816;28;20030;-90
2023/09/13 02:52:58;;;;;;;8.60;2.90;;;;;;;4.38;100.00;101648.50;5009180;28;20052;-85
2023/09/13 02:55:23;;;;;;;8.77;2.55;;;;;;;4.46;100.00;101645.28;5009047;28;20034;-84
2023/09/13 02:57:49;;;;;;;9.18;2.72;;;;;;;4.54;100.00;101638.41;5009931;28;20035;-84
2023/09/13 03:00:15;;;;;;;7.68;3.10;;;;;;;4.65;100.00;101640.25;4997769;28;20026;-86
2023/09/13 03:02:40;;;;;;;6.80;3.15;;;;;;;4.68;100.00;101639.19;5012779;28;20026;-85
2023/09/13 03:05:06;;;;;;;7.10;2.78;;;;;;;4.71;100.00;101639.81;4996223;28;20114;-85
2023/09/13 03:07:32;;;;;;;6.85;2.80;;;;;;;4.69;100.00;101633.75;4996252;28;20038;-84
2023/09/13 03:09:58;;;;;;;7.90;2.30;;;;;;;4.71;100.00;101637.16;5012689;28;20081;-85
2023/09/13 03:12:24;;;;;;;6.45;2.60;;;;;;;4.71;100.00;101631.81;4997206;28;20033;-87
2023/09/13 03:14:49;;;;;;;7.03;2.58;;;;;;;4.79;100.00;101629.44;4997413;28;20037;-84
2023/09/13 03:17:15;;;;;;;8.90;2.72;;;;;;;4.88;100.00;101635.84;4996075;28;20401;-84
2023/09/13 03:19:41;;;;;;;9.43;2.63;;;;;;;5.00;100.00;101628.72;5012419;28;20038;-86
2023/09/13 03:22:06;;;;;;;7.78;2.53;;;;;;;5.11;100.00;101631.44;5012090;28;20033;-84
2023/09/13 03:24:32;;;;;;;10.63;2.70;;;;;;;5.20;100.00;101628.03;4996349;28;20054;-85
2023/09/13 03:26:58;;;;;;;8.93;3.08;;;;;;;5.18;100.00;101623.78;5017681;28;20053;-85
2023/09/13 03:29:23;;;;;;;8.15;2.42;;;;;;;5.13;100.00;101618.81;5019321;28;20034;-84
2023/09/13 03:31:50;;;;;;;5.85;2.67;;;;;;;5.17;100.00;101630.09;5008130;28;20047;-85
2023/09/13 03:34:16;;;;;;;11.73;3.25;;;;;;;5.12;100.00;101625.13;4995547;28;20042;-84
2023/09/13 03:36:43;;;;;;;11.43;3.47;;;;;;;5.06;100.00;101625.59;4997105;28;20042;-85
2023/09/13 03:39:09;;;;;;;14.45;3.10;;;;;;;5.05;100.00;101621.22;4996098;28;20469;-87
2023/09/13 03:41:34;;;;;;;10.02;2.80;;;;;;;4.98;100.00;101620.03;4996644;28;20022;-84
2023/09/13 03:44:00;;;;;;;8.63;2.50;;;;;;;4.88;100.00;101614.53;4996847;28;20030;-85
2023/09/13 03:46:25;;;;;;;9.80;2.42;;;;;;;4.78;100.00;101619.72;4995453;28;20034;-85
2023/09/13 03:48:51;;;;;;;6.45;2.60;;;;;;;4.74;100.00;101617.44;4996625;28;20385;-85
2023/09/13 03:51:18;;;;;;;6.68;2.63;;;;;;;4.75;100.00;101619.13;4995164;28;20065;-85
2023/09/13 03:53:45;;;;;;;7.85;3.05;;;;;;;4.74;100.00;101609.44;4996454;28;20035;-86
2023/09/13 03:56:10;;;;;;;11.45;2.67;;;;;;;4.73;100.00;101607.72;4995641;28;20188;-86
2023/09/13 03:58:36;;;;;;;7.40;2.55;;;;;;;4.72;100.00;101601.53;4995591;28;20133;-85
2023/09/13 04:01:05;;;;;;;5.82;2.50;;;;;;;4.71;100.00;101601.66;5011352;28;20027;-85
2023/09/13 04:03:32;;;;;;;10.35;2.75;;;;;;;4.67;100.00;101598.38;5010891;28;20042;-85
2023/09/13 04:05:59;;;;;;;9.98;2.72;;;;;;;4.73;100.00;101595.25;5011438;28;20033;-85
2023/09/13 04:08:25;;;;;;;8.57;2.88;;;;;;;4.78;100.00;101600.22;4978736;28;20042;-85
2023/09/13 04:10:51;;;;;;;6.22;2.72;;;;;;;4.69;100.00;101592.94;5011366;28;20084;-85
2023/09/13 04:13:16;;;;;;;9.20;2.72;;;;;;;4.61;100.00;101577.53;4996207;28;20041;-86
2023/09/13 04:15:44;;;;;;;9.88;2.63;;;;;;;4.56;100.00;101590.38;4995102;28;20030;-85
2023/09/13 04:18:11;;;;;;;8.90;2.75;;;;;;;4.48;100.00;101582.94;4994835;28;20031;-85
2023/09/13 04:20:36;;;;;;;6.93;2.47;;;;;;;4.40;100.00;101586.19;4995029;28;20050;-85
2023/09/13 04:23:02;;;;;;;6.78;2.50;;;;;;;4.33;100.00;101574.28;4995070;28;20034;-85
2023/09/13 04:25:28;;;;;;;8.85;2.53;;;;;;;4.25;100.00;101583.81;4994034;28;20625;-84
2023/09/13 04:27:54;;;;;;;9.30;2.75;;;;;;;4.43;100.00;101587.78;4994848;28;20031;-86
2023/09/13 04:30:19;;;;;;;8.60;2.70;;;;;;;4.35;100.00;101579.50;5011165;28;20053;-85
2023/09/13 04:32:47;;;;;;;6.13;2.47;;;;;;;4.23;100.00;101575.94;4996088;28;20057;-84
2023/09/13 04:35:13;;;;;;;7.63;2.20;;;;;;;4.13;100.00;101572.28;4994882;28;20046;-86
2023/09/13 04:37:39;;;;;;;6.93;2.22;;;;;;;4.15;100.00;101570.34;5010890;28;20034;-87
2023/09/13 04:40:05;;;;;;;5.40;2.40;;;;;;;4.13;100.00;101581.13;4994472;28;20035;-86
2023/09/13 04:42:50;;;;;;;5.18;2.47;;;;;;;4.18;100.00;101572.78;4978471;28;20034;-87
2023/09/13 04:45:15;;;;;;;6.28;2.25;;;;;;;4.21;100.00;101567.25;4978730;28;20030;-86
2023/09/13 04:47:41;;;;;;;6.93;2.20;;;;;;;4.20;100.00;101573.50;4994593;28;20409;-85
2023/09/13 04:50:07;;;;;;;5.43;2.33;;;;;;;4.15;100.00;101567.69;4995690;28;20109;-86
2023/09/13 04:52:33;;;;;;;5.80;2.65;;;;;;;4.18;100.00;101568.31;4978355;28;20053;-85
2023/09/13 04:54:58;;;;;;;6.63;2.45;;;;;;;4.20;100.00;101557.53;4994430;28;20034;-87
2023/09/13 04:57:24;;;;;;;6.82;2.55;;;;;;;4.23;100.00;101557.31;4994357;28;20030;-87
2023/09/13 04:59:50;;;;;;;8.65;2.65;;;;;;;4.22;100.00;101552.13;4994257;28;20106;-86
2023/09/13 05:02:16;;;;;;;6.70;2.45;;;;;;;4.18;100.00;101548.81;4978232;28;20551;-86
2023/09/13 05:04:42;;;;;;;6.60;2.25;;;;;;;4.07;100.00;101544.28;4995359;28;20060;-86
2023/09/13 05:07:07;;;;;;;6.95;2.40;;;;;;;4.03;100.00;101545.50;4994243;28;20026;-88
2023/09/13 05:09:35;;;;;;;5.95;2.50;;;;;;;4.04;100.00;101549.00;4994151;28;20461;-88
2023/09/13 05:12:01;;;;;;;7.57;2.60;;;;;;;4.04;100.00;101544.53;5010202;28;20034;-86
2023/09/13 05:14:26;;;;;;;8.88;2.42;;;;;;;4.17;100.00;101560.44;4993855;28;20520;-86
2023/09/13 05:16:52;;;;;;;8.07;2.72;;;;;;;4.24;100.00;101552.84;4977947;28;20541;-85
2023/09/13 05:19:18;;;;;;;9.88;2.97;;;;;;;4.33;100.00;101568.13;5010078;28;20037;-85
2023/09/13 05:21:44;;;;;;;9.07;2.80;;;;;;;4.37;100.00;101561.63;4993476;28;20093;-88
2023/09/13 05:24:09;;;;;;;7.20;2.95;;;;;;;4.54;100.00;101571.81;5010149;28;20466;-86
2023/09/13 05:26:35;;;;;;;10.38;2.95;;;;;;;4.67;100.00;101563.75;4993920;28;20071;-85
2023/09/13 05:29:02;;;;;;;9.23;2.88;;;;;;;4.76;100.00;101563.06;4994888;28;20030;-86
2023/09/13 05:31:28;;;;;;;7.35;2.70;;;;;;;4.75;100.00;101564.00;5009642;28;20478;-85
2023/09/13 05:33:53;;;;;;;7.63;2.40;;;;;;;4.75;100.00;101577.31;5010031;28;20037;-85
2023/09/13 05:36:19;;;;;;;7.95;2.45;;;;;;;4.74;100.00;101564.97;5009756;28;20030;-86
2023/09/13 05:38:44;;;;;;;9.48;2.70;;;;;;;4.79;100.00;101564.59;4993658;28;20036;-86
2023/09/13 05:41:11;;;;;;;5.68;2.25;;;;;;;4.84;100.00;101565.97;4993363;28;20030;-88
2023/09/13 05:43:41;;;;;;;8.00;2.47;;;;;;;4.87;100.00;101586.22;4993725;28;20030;-85
2023/09/13 05:46:07;;;;;;;7.10;3.00;;;;;;;4.92;100.00;101572.50;5014058;28;20049;-85
2023/09/13 05:48:34;;;;;;;7.40;2.92;;;;;;;5.02;100.00;101574.34;5015715;28;20058;-84
2023/09/13 05:51:00;;;;;;;8.55;3.05;;;;;;;5.11;100.00;101572.78;5005639;28;20034;-86
2023/09/13 05:53:25;;;;;;;7.57;3.10;;;;;;;5.26;100.00;101570.72;5009401;28;20105;-85
2023/09/13 05:55:51;;;;;;;9.57;2.90;;;;;;;5.43;100.00;101578.22;4993304;28;20474;-85
2023/09/13 05:58:17;;;;;;;10.07;3.67;;;;;;;5.59;100.00;101577.00;4993057;28;20473;-86
2023/09/13 06:00:48;;;;;;;8.98;3.30;;;;;;;5.68;100.00;101574.44;5009704;28;20042;-86
2023/09/13 06:03:19;;;;;;;12.40;3.17;;;;;;;5.76;100.00;101570.31;4977142;28;20035;-87
2023/09/13 06:05:49;;;;;;;11.43;3.13;;;;;;;5.81;100.00;101578.78;5009761;28;20034;-88
2023/09/13 06:08:15;;;;;;;8.57;2.85;;;;;;;5.84;100.00;101578.53;4993086;28;20096;-86
2023/09/13 06:10:40;;;;;;;12.13;2.97;;;;;;;5.82;100.00;101569.78;5009361;28;20034;-86
2023/09/13 06:13:07;;;;;;;9.98;3.25;;;;;;;5.85;100.00;101573.09;4994286;28;20050;-86
2023/09/13 06:15:33;;;;;;;10.10;3.30;;;;;;;5.92;100.00;101579.59;4993075;28;20035;-86
2023/09/13 06:17:59;;;;;;;8.05;3.47;;;;;;;6.05;100.00;101582.13;4993285;28;20034;-86
2023/09/13 06:20:24;;;;;;;13.60;3.65;;;;;;;6.21;100.00;101586.22;4992876;28;20492;-86
2023/09/13 06:22:50;;;;;;;9.65;3.17;;;;;;;6.38;100.00;101591.03;4994154;28;20026;-87
2023/09/13 06:25:17;;;;;;;11.55;3.45;;;;;;;6.54;100.00;101593.25;4993081;28;20088;-86
2023/09/13 06:27:43;;;;;;;11.55;3.58;;;;;;;6.65;100.00;101585.16;4992981;28;20042;-86
2023/09/13 06:30:09;;;;;;;11.27;3.45;;;;;;;6.79;100.00;101589.34;4993512;28;20034;-86
2023/09/13 06:32:35;;;;;;;10.43;3.50;;;;;;;6.88;100.00;101582.34;4994946;28;20030;-87
2023/09/13 06:35:01;;;;;;;10.05;3.30;;;;;;;6.96;100.00;101577.19;5013197;28;20045;-86
2023/09/13 06:37:26;;;;;;;13.45;3.28;;;;;;;7.04;100.00;101574.72;5013290;28;20026;-86
2023/09/13 06:39:53;;;;;;;10.70;3.33;;;;;;;7.14;100.00;101569.41;4998266;28;20026;-86
2023/09/13 06:42:19;;;;;;;12.40;3.22;;;;;;;7.24;100.00;101578.31;4996827;28;20109;-86
2023/09/13 06:44:44;;;;;;;11.27;3.38;;;;;;;7.37;100.00;101584.28;4996758;28;20484;-86
2023/09/13 06:47:10;;;;;;;10.70;3.42;;;;;;;7.53;100.00;101590.97;4997678;28;20041;-86
2023/09/13 06:49:35;;;;;;;11.95;3.60;;;;;;;7.65;100.00;101582.72;4996864;28;20043;-86
2023/09/13 06:52:02;;;;;;;9.65;3.85;;;;;;;7.79;100.00;101594.00;4996345;28;20084;-86
2023/09/13 06:54:27;;;;;;;9.95;3.22;;;;;;;7.87;100.00;101592.34;4996723;28;20099;-88
2023/09/13 06:56:53;;;;;;;9.73;3.40;;;;;;;7.98;100.00;101595.88;4996739;28;20038;-86
2023/09/13 06:59:19;;;;;;;10.30;3.40;;;;;;;8.04;100.00;101585.44;5013010;28;20101;-86
2023/09/13 07:01:45;;;;;;;9.73;2.92;;;;;;;8.11;100.00;101585.75;4980513;28;20030;-86
2023/09/13 07:04:11;;;;;;;12.82;3.40;;;;;;;8.18;100.00;101581.53;4996242;28;20393;-86
2023/09/13 07:06:39;;;;;;;9.43;3.00;;;;;;;8.24;100.00;101583.66;4980456;28;20034;-88
2023/09/13 07:09:05;;;;;;;12.40;3.70;;;;;;;8.30;100.00;101569.69;4997896;28;20470;-86
2023/09/13 07:11:31;;;;;;;12.48;3.83;;;;;;;8.43;100.00;101573.94;4996467;28;20121;-86
2023/09/13 07:13:58;;;;;;;11.27;3.70;;;;;;;8.53;100.00;101566.75;4995473;28;20086;-85
2023/09/13 07:16:23;;;;;;;9.90;3.33;;;;;;;8.62;100.00;101563.19;4997244;28;20077;-87
2023/09/13 07:18:49;;;;;;;11.98;3.30;;;;;;;8.74;100.00;101564.75;4997069;28;20084;-87
2023/09/13 07:21:15;;;;;;;9.05;3.53;;;;;;;8.85;100.00;101571.78;4997379;28;20034;-84
2023/09/13 07:23:44;;;;;;;10.00;3.10;;;;;;;8.95;100.00;101561.03;4997175;28;20033;-90
2023/09/13 07:26:10;;;;;;;8.90;3.50;;;;;;;9.04;100.00;101562.81;5012117;28;20030;-86
2023/09/13 07:28:36;;;;;;;10.63;3.80;;;;;;;9.14;100.00;101560.97;4997253;28;20038;-88
2023/09/13 07:31:06;;;;;;;10.52;3.45;;;;;;;9.24;100.00;101569.81;5012282;28;20117;-87
2023/09/13 07:33:32;;;;;;;11.43;3.45;;;;;;;9.38;100.00;101567.66;5012340;28;20080;-87
2023/09/13 07:35:58;;;;;;;10.27;3.40;;;;;;;9.52;100.00;101553.72;4997193;28;20034;-87
2023/09/13 07:38:23;;;;;;;8.60;3.28;;;;;;;9.71;100.00;101546.53;4995655;28;20030;-85
2023/09/13 07:40:49;;;;;;;11.50;3.60;;;;;;;9.96;100.00;101559.25;5012107;28;20114;-86
2023/09/13 07:43:16;;;;;;;12.02;3.95;;;;;;;10.23;100.00;101554.81;4994998;28;20034;-88
2023/09/13 07:45:42;;;;;;;7.20;3.70;;;;;;;10.44;100.00;101552.66;4979688;28;20042;-88
2023/09/13 07:48:09;;;;;;;10.98;3.53;;;;;;;10.55;100.00;101556.97;5011370;28;20037;-87
2023/09/13 07:50:38;;;;;;;10.70;3.90;;;;;;;10.58;100.00;101551.25;4995846;28;20034;-88
2023/09/13 07:53:04;;;;;;;8.75;3.53;;;;;;;10.67;100.00;101554.88;5011759;28;20034;-86
2023/09/13 07:55:30;;;;;;;10.60;3.38;;;;;;;10.76;100.00;101548.53;5011837;28;20113;-87
2023/09/13 07:57:55;;;;;;;9.82;3.10;;;;;;;10.77;100.00;101548.41;5012023;28;20461;-86
2023/09/13 08:00:27;;;;;;;10.10;3.22;;;;;;;10.72;100.00;101550.72;4996659;28;20031;-88
2023/09/13 08:02:53;;;;;;;6.20;3.03;;;;;;;10.70;100.00;101546.50;4998280;28;20030;-90
2023/09/13 08:05:19;;;;;;;10.25;3.20;;;;;;;10.57;100.00;101534.28;4981219;28;20030;-87
2023/09/13 08:07:45;;;;;;;8.05;3.00;;;;;;;10.56;100.00;101527.22;4995975;28;20034;-86
2023/09/13 08:10:11;;;;;;;7.38;3.20;;;;;;;10.59;100.00;101531.44;4999517;28;20041;-85
2023/09/13 08:12:41;;;;;;;5.47;3.08;;;;;;;10.53;100.00;101524.88;5032380;28;20034;-88
2023/09/13 08:15:10;;;;;;;4.82;2.55;;;;;;;10.54;100.00;101517.63;5005894;28;20031;-86
2023/09/13 08:17:36;;;;;;;9.48;2.92;;;;;;;10.69;100.00;101523.25;5009623;28;20045;-84
2023/09/13 08:20:04;;;;;;;9.00;2.80;;;;;;;10.83;100.00;101517.31;5004830;28;20022;-86
2023/09/13 08:22:31;;;;;;;5.65;2.83;;;;;;;11.20;100.00;101508.09;4979835;28;20469;-85
2023/09/13 08:24:56;;;;;;;7.32;2.58;;;;;;;11.70;100.00;101503.72;4995113;28;20085;-87
2023/09/13 08:27:22;;;;;;;6.07;2.90;;;;;;;12.01;100.00;101494.03;5011328;28;20034;-86
2023/09/13 08:29:48;;;;;;;6.43;2.38;;;;;;;12.41;100.00;101502.28;5011173;28;20462;-88
2023/09/13 08:32:14;;;;;;;7.05;2.13;;;;;;;12.90;100.00;101502.19;5009797;28;20038;-86
2023/09/13 08:34:40;;;;;;;6.50;2.47;;;;;;;13.01;100.00;101491.03;4992377;28;20030;-86
2023/09/13 08:37:05;;;;;;;4.18;2.08;;;;;;;12.73;100.00;101491.47;4992569;28;20034;-85
2023/09/13 08:39:31;;;;;;;3.90;2.08;;;;;;;12.40;100.00;101509.53;4995317;28;20022;-86
2023/09/13 08:41:58;;;;;;;4.07;1.98;;;;;;;12.14;100.00;101506.16;5010993;28;20038;-86
2023/09/13 08:44:24;;;;;;;4.18;1.92;;;;;;;11.94;100.00;101508.34;4994433;28;20034;-85
2023/09/13 08:46:51;;;;;;;6.40;2.00;;;;;;;11.85;100.00;101508.31;5010897;28;20030;-86
2023/09/13 08:49:17;;;;;;;4.53;1.98;;;;;;;11.93;100.00;101504.78;5010702;28;20031;-85
2023/09/13 08:51:44;;;;;;;4.18;1.88;;;;;;;12.17;100.00;101513.91;4994479;28;20030;-86
2023/09/13 08:54:11;;;;;;;4.70;1.90;;;;;;;12.53;100.00;101495.53;5010772;28;20038;-86
2023/09/13 08:56:39;;;;;;;3.53;1.60;;;;;;;13.04;100.00;101497.94;4994173;28;20386;-86
2023/09/13 08:59:04;;;;;;;4.38;2.13;;;;;;;13.37;100.00;101487.88;4994589;28;20026;-86
2023/09/13 09:01:30;;;;;;;6.20;1.92;;;;;;;13.50;100.00;101487.31;4994269;28;20489;-86
2023/09/13 09:03:56;;;;;;;4.97;2.05;;;;;;;13.50;100.00;101488.16;4993879;28;20161;-86
2023/09/13 09:06:22;;;;;;;4.28;2.40;;;;;;;13.41;100.00;101492.75;4978226;28;20488;-86
2023/09/13 09:08:48;;;;;;;9.55;4.93;;;;;;;13.25;100.00;101500.06;4993794;28;20045;-85
2023/09/13 09:11:14;;;;;;;11.55;7.35;;;;;;;13.14;100.00;101485.91;4994108;28;20036;-87
2023/09/13 09:13:43;;;;;;;10.45;5.90;;;;;;;13.14;100.00;101490.47;4994925;28;20104;-86
2023/09/13 09:16:09;;;;;;;9.05;4.57;;;;;;;13.24;100.00;101490.28;5022406;28;20044;-85
2023/09/13 09:18:37;;;;;;;5.00;3.15;;;;;;;13.34;100.00;101480.16;5011657;28;20026;-86
2023/09/13 09:21:04;;;;;;;5.97;3.00;;;;;;;13.53;100.00;101482.41;4994261;28;20065;-86
2023/09/13 09:23:29;;;;;;;4.18;2.17;;;;;;;13.75;100.00;101504.22;4993653;28;20520;-86
2023/09/13 09:25:55;;;;;;;3.33;2.17;;;;;;;13.89;100.00;101500.72;4993870;28;20034;-85
2023/09/13 09:28:22;;;;;;;3.65;2.05;;;;;;;13.92;100.00;101495.00;4994971;28;20041;-86
2023/09/13 09:30:51;;;;;;;4.30;1.98;;;;;;;13.90;100.00;101509.72;4993880;28;20496;-85
2023/09/13 09:33:25;;;;;;;2.78;1.73;;;;;;;14.01;100.00;101501.19;4993871;28;20073;-85
2023/09/13 09:35:56;;;;;;;5.47;1.88;;;;;;;14.26;100.00;101491.00;5010207;28;20093;-86
2023/09/13 09:38:23;;;;;;;3.53;2.10;;;;;;;14.57;100.00;101481.97;4993504;28;20053;-86
2023/09/13 09:40:50;;;;;;;5.43;2.15;;;;;;;14.90;100.00;101480.59;5010087;28;20073;-86
2023/09/13 09:43:16;;;;;;;4.57;2.10;;;;;;;14.92;100.00;101493.94;5009430;28;20030;-86
2023/09/13 09:45:42;;;;;;;4.00;1.80;;;;;;;14.77;100.00;101480.41;5010082;28;20120;-86
2023/09/13 09:48:08;;;;;;;4.40;1.98;;;;;;;14.68;100.00;101471.50;4994239;28;20030;-86
2023/09/13 09:50:34;;;;;;;6.18;2.08;;;;;;;14.71;100.00;101475.72;5010428;28;20050;-86
2023/09/13 09:53:09;;;;;;;3.60;1.75;;;;;;;14.66;100.00;101470.00;5008208;28;20038;-87
2023/09/13 09:55:36;;;;;;;4.25;2.35;;;;;;;14.65;100.00;101460.22;4993649;28;20035;-87
2023/09/13 09:58:02;;;;;;;5.28;2.15;;;;;;;14.73;100.00;101454.72;5009556;28;20048;-88
2023/09/13 10:00:27;;;;;;;4.40;3.10;;;;;;;14.82;100.00;101448.19;4994603;28;20034;-87
2023/09/13 10:02:53;;;;;;;8.38;5.65;;;;;;;15.01;100.00;101448.66;4993447;28;20039;-87
2023/09/13 10:05:21;;;;;;;7.40;4.53;;;;;;;15.16;100.00;101438.63;4993101;28;20034;-86
2023/09/13 10:07:57;;;;;;;6.95;4.32;;;;;;;15.28;100.00;101442.53;4991680;28;20112;-87
2023/09/13 10:10:37;;;;;;;5.05;3.13;;;;;;;15.31;100.00;101434.00;4991976;28;20173;-86
2023/09/13 10:13:06;;;;;;;3.80;2.17;;;;;;;15.17;100.00;101430.31;4975945;28;20073;-86
2023/09/13 10:15:32;;;;;;;4.68;2.30;;;;;;;14.97;100.00;101441.91;4992136;28;20462;-86
2023/09/13 10:18:01;;;;;;;2.72;1.98;;;;;;;14.64;100.00;101440.44;4992785;28;20045;-88
2023/09/13 10:20:28;;;;;;;4.60;2.30;;;;;;;14.37;100.00;101435.59;4991483;28;20038;-89
2023/09/13 10:22:56;;;;;;;5.50;2.00;;;;;;;14.17;100.00;101433.44;5007969;28;20037;-87
2023/09/13 10:25:22;;;;;;;2.80;1.75;;;;;;;14.37;100.00;101436.47;4993060;28;20473;-87
2023/09/13 10:27:50;;;;;;;5.88;2.30;;;;;;;14.49;100.00;101439.56;4994167;28;20033;-89
2023/09/13 10:30:22;;;;;;;4.70;2.10;;;;;;;14.48;100.00;101444.13;4993376;28;20034;-88
2023/09/13 10:32:50;;;;;;;6.77;3.50;;;;;;;14.36;100.00;101437.47;5009929;28;20034;-88
2023/09/13 10:35:17;;;;;;;6.25;4.32;;;;;;;14.35;100.00;101433.09;5009665;28;20030;-88
2023/09/13 10:38:09;;;;;;;3.97;2.22;;;;;;;14.36;100.00;101433.94;4991663;28;20527;-87
2023/09/13 10:40:41;;;;;;;11.65;6.22;;;;;;;14.36;100.00;101420.41;4977088;28;20108;-87
2023/09/13 10:43:08;;;;;;;4.50;2.70;;;;;;;14.40;100.00;101413.63;5008928;28;20038;-86
2023/09/13 10:45:34;;;;;;;5.00;2.53;;;;;;;14.54;100.00;101411.97;4992838;28;20113;-87
2023/09/13 10:48:01;;;;;;;3.83;1.70;;;;;;;14.65;100.00;101411.50;4992653;28;20063;-87
2023/09/13 10:50:27;;;;;;;4.45;1.95;;;;;;;14.68;100.00;101416.53;5009410;28;20374;-87
2023/09/13 10:52:53;;;;;;;2.83;1.60;;;;;;;14.64;100.00;101407.97;5009291;28;20042;-87
2023/09/13 10:55:19;;;;;;;2.70;1.77;;;;;;;14.57;100.00;101398.06;4993808;28;20022;-86
2023/09/13 10:57:48;;;;;;;4.53;1.80;;;;;;;14.47;100.00;101393.75;5021419;28;20011;-86
2023/09/13 11:00:15;;;;;;;3.50;1.73;;;;;;;14.08;100.00;101394.81;5016300;28;20105;-85
2023/09/13 11:02:43;;;;;;;3.47;1.80;;;;;;;13.71;100.00;101398.34;5005112;28;20030;-86
2023/09/13 11:05:10;;;;;;;3.80;1.70;;;;;;;13.51;100.00;101397.97;5008357;28;20102;-89
2023/09/13 11:07:46;;;;;;;5.68;1.90;;;;;;;13.36;100.00;101383.53;4994081;28;20046;-89
2023/09/13 11:10:14;;;;;;;4.00;2.10;;;;;;;13.20;100.00;101385.31;4993730;28;20544;-89
2023/09/13 11:12:43;;;;;;;4.05;1.98;;;;;;;13.05;100.00;101379.00;4977354;28;20133;-89
2023/09/13 11:15:22;;;;;;;4.32;1.88;;;;;;;12.97;100.00;101379.03;4992732;28;20034;-89
2023/09/13 11:17:49;;;;;;;3.15;1.67;;;;;;;12.87;100.00;101376.53;4993122;28;20030;-90
2023/09/13 11:20:38;;;;;;;3.20;1.20;;;;;;;12.80;100.00;101363.91;5012552;28;20038;-90